Time;durP1;ratioP1;P1;durP2;ratioP2;P2;SDS_P1;SDS_P2;PMS_P1;PMS_P2;Temp;Humidity;BMP_temperature;BMP_pressure;BME280_temperature;BME280_humidity;BME280_pressure;Samples;Min_cycle;Max_cycle;Signal;HPM_P1;HPM_P2
2020/12/19 00:01:56;;;;;;;12.27;11.17;;;;;;;5.40;84.40;100850.81;5059657;28;20230;-79
2020/12/19 00:04:22;;;;;;;12.30;11.30;;;;;;;5.44;84.48;100842.22;5061845;28;20228;-79
2020/12/19 00:06:48;;;;;;;12.60;11.50;;;;;;;5.40;84.79;100843.06;5049406;28;20220;-79
2020/12/19 00:09:14;;;;;;;12.40;11.30;;;;;;;5.40;84.50;100834.44;5066538;28;20224;-79
2020/12/19 00:11:41;;;;;;;11.90;10.90;;;;;;;5.43;84.07;100831.84;5064431;28;20595;-79
2020/12/19 00:14:07;;;;;;;12.50;11.40;;;;;;;5.42;84.66;100838.75;5058132;28;20198;-79
2020/12/19 00:16:34;;;;;;;11.40;10.43;;;;;;;5.48;84.47;100825.00;5052799;28;20233;-78
2020/12/19 00:19:00;;;;;;;13.10;12.00;;;;;;;5.42;85.18;100838.75;5062987;28;20574;-79
2020/12/19 00:21:32;;;;;;;12.87;11.57;;;;;;;5.50;85.00;100828.47;5061778;28;20205;-79
2020/12/19 00:23:58;;;;;;;11.93;10.93;;;;;;;5.49;84.48;100826.72;5063128;28;20205;-79
2020/12/19 00:26:30;;;;;;;11.33;10.53;;;;;;;5.47;84.23;100834.50;5053092;28;20573;-80
2020/12/19 00:28:56;;;;;;;12.23;11.20;;;;;;;5.43;84.10;100824.97;5060997;28;20209;-79
2020/12/19 00:31:23;;;;;;;11.50;10.60;;;;;;;5.38;84.01;100826.66;5060908;28;20201;-79
2020/12/19 00:33:50;;;;;;;11.60;10.67;;;;;;;5.38;84.72;100831.81;5062102;28;20205;-79
2020/12/19 00:36:16;;;;;;;10.17;9.37;;;;;;;5.38;84.05;100826.66;5053602;28;20719;-79
2020/12/19 00:38:41;;;;;;;11.10;10.10;;;;;;;5.34;84.27;100812.81;5061889;28;20205;-79
2020/12/19 00:41:07;;;;;;;11.03;10.13;;;;;;;5.29;83.52;100822.28;5058738;28;20206;-79
2020/12/19 00:43:35;;;;;;;9.93;9.10;;;;;;;5.21;82.97;100823.91;5056678;28;20304;-79
2020/12/19 00:46:01;;;;;;;9.13;8.33;;;;;;;5.09;82.45;100822.06;5052325;28;20217;-79
2020/12/19 00:48:26;;;;;;;10.10;9.00;;;;;;;4.81;82.68;100822.66;5049078;28;20206;-79
2020/12/19 00:50:53;;;;;;;10.50;9.70;;;;;;;4.81;83.98;100812.28;5061161;28;20213;-79
2020/12/19 00:53:19;;;;;;;10.07;9.10;;;;;;;4.80;84.02;100814.03;5056250;28;20240;-79
2020/12/19 00:55:45;;;;;;;10.73;9.83;;;;;;;4.78;83.44;100807.97;5052524;28;20706;-79
2020/12/19 00:58:11;;;;;;;12.77;11.57;;;;;;;4.70;85.49;100809.59;5060519;28;20543;-79
2020/12/19 01:00:36;;;;;;;12.73;11.73;;;;;;;4.77;86.72;100808.81;5052248;28;20248;-79
2020/12/19 01:03:02;;;;;;;12.37;11.37;;;;;;;4.77;86.34;100816.56;5061213;28;20263;-79
2020/12/19 01:05:28;;;;;;;11.80;10.80;;;;;;;4.80;86.72;100802.78;5059747;28;20197;-79
2020/12/19 01:07:55;;;;;;;11.77;10.77;;;;;;;4.80;86.52;100802.78;5060351;28;20671;-79
2020/12/19 01:10:21;;;;;;;12.07;10.97;;;;;;;4.81;87.17;100800.22;5067119;28;20222;-79
2020/12/19 01:12:47;;;;;;;11.77;10.77;;;;;;;4.83;87.61;100797.66;5060587;28;20252;-79
2020/12/19 01:15:12;;;;;;;11.40;10.40;;;;;;;4.84;87.20;100796.81;5041894;28;20237;-79
2020/12/19 01:17:39;;;;;;;11.13;10.23;;;;;;;4.87;87.04;100792.53;5056961;28;20254;-79
2020/12/19 01:20:05;;;;;;;11.17;10.27;;;;;;;4.88;87.12;100789.09;5061440;28;20697;-79
2020/12/19 01:22:33;;;;;;;10.63;9.73;;;;;;;4.91;86.70;100783.94;5060578;28;20197;-79
2020/12/19 01:25:00;;;;;;;11.20;10.30;;;;;;;4.87;86.57;100799.44;5060946;28;20200;-79
2020/12/19 01:27:25;;;;;;;10.07;9.17;;;;;;;4.89;86.34;100796.00;5060592;28;20229;-79
2020/12/19 01:29:51;;;;;;;8.73;7.93;;;;;;;4.89;85.83;100790.81;5053885;28;20284;-79
2020/12/19 01:32:17;;;;;;;9.23;8.53;;;;;;;4.91;85.37;100786.53;5055224;28;20597;-79
2020/12/19 01:34:43;;;;;;;9.30;8.43;;;;;;;4.89;84.15;100784.78;5058207;28;20232;-79
2020/12/19 01:37:09;;;;;;;8.60;7.80;;;;;;;4.86;83.73;100787.38;5058707;28;20221;-79
2020/12/19 01:39:35;;;;;;;7.97;7.20;;;;;;;4.81;83.36;100786.44;5066916;28;20704;-79
2020/12/19 01:42:01;;;;;;;9.20;8.40;;;;;;;4.82;83.33;100781.28;5062560;28;20204;-79
2020/12/19 01:44:27;;;;;;;9.90;9.00;;;;;;;4.83;83.03;100783.00;5060624;28;20197;-79
2020/12/19 01:46:55;;;;;;;8.57;7.53;;;;;;;4.82;82.66;100780.44;5057421;28;20287;-79
2020/12/19 01:49:23;;;;;;;8.23;7.43;;;;;;;4.81;82.64;100782.13;5060833;28;20606;-79
2020/12/19 01:51:51;;;;;;;7.77;7.17;;;;;;;4.76;81.95;100769.16;5057677;28;20229;-79
2020/12/19 01:54:17;;;;;;;7.63;6.93;;;;;;;4.82;81.90;100773.53;5060719;28;20198;-80
2020/12/19 01:56:51;;;;;;;7.37;6.77;;;;;;;4.83;81.51;100777.84;5054495;28;20225;-78
2020/12/19 01:59:18;;;;;;;7.20;6.60;;;;;;;4.76;81.34;100773.47;5054205;28;20197;-79
2020/12/19 02:01:47;;;;;;;7.00;6.50;;;;;;;4.72;81.09;100762.22;5057603;28;20297;-79
2020/12/19 02:04:13;;;;;;;8.13;7.43;;;;;;;4.68;81.14;100762.19;5052797;28;20204;-79
2020/12/19 02:06:40;;;;;;;6.90;6.40;;;;;;;4.57;80.79;100764.63;5053220;28;20225;-79
2020/12/19 02:09:07;;;;;;;8.00;7.40;;;;;;;4.50;80.74;100760.25;5062375;28;20214;-79
2020/12/19 02:11:33;;;;;;;7.93;7.13;;;;;;;4.40;80.63;100766.16;5058455;28;20206;-79
2020/12/19 02:13:59;;;;;;;7.83;7.20;;;;;;;4.42;80.93;100759.28;5057800;28;20567;-79
2020/12/19 02:16:26;;;;;;;8.67;7.83;;;;;;;4.41;81.41;100755.00;5058865;28;20259;-79
2020/12/19 02:18:52;;;;;;;8.43;7.67;;;;;;;4.37;81.77;100744.59;5059961;28;20560;-79
2020/12/19 02:21:19;;;;;;;10.57;9.57;;;;;;;4.26;83.09;100745.31;5056005;28;20197;-79
2020/12/19 02:23:46;;;;;;;9.20;8.27;;;;;;;4.21;83.22;100736.69;5059092;28;20202;-79
2020/12/19 02:26:11;;;;;;;9.00;8.20;;;;;;;4.25;83.17;100741.03;5048797;28;20225;-79
2020/12/19 02:28:37;;;;;;;9.80;9.00;;;;;;;4.26;84.05;100741.06;5059636;28;20214;-79
2020/12/19 02:31:03;;;;;;;12.30;11.30;;;;;;;4.09;84.87;100739.97;5047905;28;20276;-79
2020/12/19 02:33:29;;;;;;;11.33;10.23;;;;;;;4.07;85.31;100739.09;5060510;28;20239;-79
2020/12/19 02:35:55;;;;;;;11.37;10.37;;;;;;;4.08;85.24;100739.09;5058946;28;20310;-79
2020/12/19 02:38:21;;;;;;;11.27;10.23;;;;;;;4.17;84.21;100725.44;5059491;28;20570;-79
2020/12/19 02:40:47;;;;;;;12.30;11.30;;;;;;;4.20;83.94;100727.16;5062891;28;20292;-79
2020/12/19 02:43:13;;;;;;;10.40;9.50;;;;;;;4.25;83.29;100720.34;5057736;28;20189;-79
2020/12/19 02:45:39;;;;;;;12.37;11.07;;;;;;;4.17;84.50;100735.75;5048910;28;20251;-79
2020/12/19 02:48:05;;;;;;;15.30;13.70;;;;;;;4.14;85.81;100718.53;5057671;28;20251;-79
2020/12/19 02:50:31;;;;;;;13.90;12.70;;;;;;;4.19;85.78;100718.56;5041391;28;20198;-79
2020/12/19 02:52:57;;;;;;;12.07;11.07;;;;;;;4.24;84.54;100705.69;5056905;28;20760;-79
2020/12/19 02:55:23;;;;;;;12.07;11.07;;;;;;;4.27;83.92;100700.56;5050606;28;20773;-79
2020/12/19 02:57:49;;;;;;;10.57;9.67;;;;;;;4.27;83.13;100700.56;5056143;28;20705;-79
2020/12/19 03:00:15;;;;;;;10.17;9.27;;;;;;;4.25;82.04;100695.38;5050254;28;20213;-79
2020/12/19 03:02:41;;;;;;;9.57;8.73;;;;;;;4.19;82.12;100697.91;5058516;28;20296;-79
2020/12/19 03:05:07;;;;;;;9.90;7.80;;;;;;;4.14;81.79;100696.97;5058397;28;20205;-79
2020/12/19 03:07:33;;;;;;;9.80;9.00;;;;;;;4.11;81.58;100695.22;5054679;28;20761;-79
2020/12/19 03:09:59;;;;;;;12.87;10.50;;;;;;;4.08;82.52;100707.22;5063984;28;20614;-79
2020/12/19 03:12:25;;;;;;;9.50;8.60;;;;;;;4.02;82.04;100709.75;5054524;28;20314;-78
2020/12/19 03:14:51;;;;;;;9.97;9.17;;;;;;;4.01;81.91;100705.44;5051265;28;20667;-80
2020/12/19 03:17:17;;;;;;;9.93;9.03;;;;;;;4.03;81.79;100711.50;5050854;28;20233;-78
2020/12/19 03:19:43;;;;;;;10.17;9.20;;;;;;;4.06;81.79;100714.09;5056903;28;20558;-78
2020/12/19 03:22:09;;;;;;;9.80;9.00;;;;;;;4.02;81.73;100718.34;5053732;28;20655;-78
2020/12/19 03:24:34;;;;;;;9.57;8.77;;;;;;;3.97;81.22;100723.47;5056763;28;20227;-80
2020/12/19 03:27:00;;;;;;;11.27;10.07;;;;;;;3.97;81.58;100726.03;5056725;28;20260;-80
2020/12/19 03:29:26;;;;;;;15.57;14.20;;;;;;;3.91;84.68;100717.38;5052429;28;20201;-80
2020/12/19 03:31:53;;;;;;;12.63;11.53;;;;;;;3.99;84.01;100718.31;5054179;28;20265;-78
2020/12/19 03:34:19;;;;;;;11.63;10.63;;;;;;;3.99;83.47;100710.56;5059704;28;20202;-80
2020/12/19 03:36:44;;;;;;;10.77;9.70;;;;;;;3.93;82.70;100706.19;5051153;28;20228;-80
2020/12/19 03:39:10;;;;;;;11.50;10.43;;;;;;;4.00;82.66;100707.13;5063824;28;20637;-79
2020/12/19 03:41:36;;;;;;;11.07;10.20;;;;;;;3.94;81.76;100702.78;5063443;28;20233;-78
2020/12/19 03:44:02;;;;;;;11.37;10.37;;;;;;;3.94;81.80;100697.63;5057885;28;20233;-78
2020/12/19 03:46:28;;;;;;;11.00;10.00;;;;;;;3.93;81.14;100685.53;5053050;28;20217;-80
2020/12/19 03:48:54;;;;;;;10.57;9.67;;;;;;;3.82;81.06;100671.63;5058587;28;20236;-78
2020/12/19 03:51:20;;;;;;;10.63;9.73;;;;;;;3.82;81.29;100678.50;5059650;28;20205;-78
2020/12/19 03:53:46;;;;;;;11.80;10.80;;;;;;;3.75;81.19;100685.31;5059913;28;20703;-78
2020/12/19 03:56:12;;;;;;;12.53;11.43;;;;;;;3.74;81.19;100688.72;5059807;28;20268;-80
2020/12/19 03:58:38;;;;;;;11.93;10.93;;;;;;;3.80;81.38;100703.44;5059348;28;20208;-79
2020/12/19 04:01:04;;;;;;;12.03;10.93;;;;;;;3.77;81.89;100696.53;5050971;28;20740;-79
2020/12/19 04:03:30;;;;;;;11.87;10.87;;;;;;;3.76;81.10;100687.91;5060283;28;20621;-80
2020/12/19 04:05:56;;;;;;;12.20;11.13;;;;;;;3.71;81.54;100678.38;5046174;28;20225;-78
2020/12/19 04:08:22;;;;;;;11.43;10.50;;;;;;;3.70;80.73;100681.78;5060073;28;20200;-78
2020/12/19 04:10:48;;;;;;;11.20;10.20;;;;;;;3.60;80.58;100678.22;5070796;28;20210;-80
2020/12/19 04:13:14;;;;;;;10.73;9.83;;;;;;;3.58;80.81;100674.75;5059778;28;20213;-80
2020/12/19 04:15:40;;;;;;;12.33;11.23;;;;;;;3.57;81.97;100686.81;5059465;28;20239;-78
2020/12/19 04:18:06;;;;;;;12.37;11.17;;;;;;;3.58;82.48;100675.63;5059803;28;20198;-80
2020/12/19 04:20:31;;;;;;;11.87;10.87;;;;;;;3.56;82.14;100686.78;5047031;28;20205;-78
2020/12/19 04:22:58;;;;;;;10.83;9.93;;;;;;;3.57;81.26;100675.63;5057027;28;20201;-80
2020/12/19 04:25:24;;;;;;;11.23;10.23;;;;;;;3.43;80.52;100683.19;5050586;28;20197;-80
2020/12/19 04:27:50;;;;;;;11.77;10.67;;;;;;;3.43;81.50;100675.44;5058760;28;20247;-80
2020/12/19 04:30:16;;;;;;;12.50;11.40;;;;;;;3.40;82.30;100671.94;5050846;28;20201;-80
2020/12/19 04:32:42;;;;;;;14.37;13.10;;;;;;;3.42;83.02;100677.97;5060083;28;20233;-80
2020/12/19 04:35:08;;;;;;;13.70;12.60;;;;;;;3.41;83.31;100673.66;5057506;28;20274;-80
2020/12/19 04:37:34;;;;;;;14.70;13.30;;;;;;;3.43;83.51;100683.19;5058645;28;20320;-80
2020/12/19 04:40:01;;;;;;;13.83;12.63;;;;;;;3.40;84.03;100675.38;5063021;28;20296;-80
2020/12/19 04:42:26;;;;;;;16.63;13.70;;;;;;;3.44;84.86;100674.56;5054023;28;20198;-80
2020/12/19 04:44:52;;;;;;;14.60;13.30;;;;;;;3.42;84.58;100662.50;5054865;28;20695;-80
2020/12/19 04:47:19;;;;;;;14.93;13.50;;;;;;;3.45;83.71;100665.09;5057472;28;20289;-80
2020/12/19 04:49:46;;;;;;;15.30;13.90;;;;;;;3.47;84.47;100661.72;5059687;28;20209;-79
2020/12/19 04:52:12;;;;;;;14.63;13.27;;;;;;;3.53;84.24;100664.38;5058071;28;20229;-80
2020/12/19 04:54:38;;;;;;;19.07;16.30;;;;;;;3.61;84.69;100667.06;5055778;28;20198;-80
2020/12/19 04:57:05;;;;;;;17.80;16.07;;;;;;;3.71;85.34;100661.16;5057176;28;20230;-80
2020/12/19 04:59:31;;;;;;;20.37;18.50;;;;;;;3.77;86.00;100661.25;5051282;28;20225;-80
2020/12/19 05:01:57;;;;;;;19.47;17.57;;;;;;;3.87;86.09;100658.78;5054977;28;20678;-80
2020/12/19 05:04:23;;;;;;;19.53;17.73;;;;;;;3.94;86.00;100661.47;5057411;28;20208;-80
2020/12/19 05:06:50;;;;;;;18.50;16.60;;;;;;;3.99;85.56;100658.91;5054298;28;20230;-78
2020/12/19 05:09:16;;;;;;;19.70;17.50;;;;;;;4.04;86.07;100662.41;5059140;28;20208;-78
2020/12/19 05:11:42;;;;;;;17.97;16.37;;;;;;;4.10;86.04;100661.63;5057767;28;20209;-78
2020/12/19 05:14:09;;;;;;;19.97;17.97;;;;;;;4.15;86.20;100662.53;5058851;28;20666;-78
2020/12/19 05:16:35;;;;;;;20.13;18.03;;;;;;;4.16;85.47;100669.44;5057117;28;20225;-78
2020/12/19 05:19:07;;;;;;;16.47;14.87;;;;;;;4.18;85.62;100659.97;5050718;28;20198;-78
2020/12/19 05:21:43;;;;;;;18.33;16.63;;;;;;;4.13;85.92;100656.50;5048624;28;20597;-78
2020/12/19 05:24:11;;;;;;;18.23;16.63;;;;;;;4.14;86.34;100653.94;5059272;28;20280;-78
2020/12/19 05:26:38;;;;;;;19.70;17.83;;;;;;;4.15;86.25;100655.66;5055384;28;20225;-78
2020/12/19 05:29:04;;;;;;;18.33;16.73;;;;;;;4.20;85.40;100644.50;5059058;28;20209;-78
2020/12/19 05:31:33;;;;;;;18.93;17.10;;;;;;;4.21;85.27;100641.06;5058061;28;20259;-78
2020/12/19 05:33:59;;;;;;;18.20;16.50;;;;;;;4.23;85.22;100640.22;5059849;28;20229;-78
2020/12/19 05:36:28;;;;;;;18.00;16.13;;;;;;;4.16;85.20;100636.72;5059483;28;20232;-78
2020/12/19 05:39:00;;;;;;;19.17;17.10;;;;;;;4.16;85.14;100634.16;5057197;28;20698;-78
2020/12/19 05:41:26;;;;;;;18.27;16.70;;;;;;;4.15;85.15;100640.16;5047053;28;20216;-78
2020/12/19 05:43:53;;;;;;;18.47;16.63;;;;;;;4.11;85.00;100625.47;5051821;28;20220;-78
2020/12/19 05:46:29;;;;;;;20.93;18.83;;;;;;;4.17;85.01;100622.94;5048879;28;20702;-78
2020/12/19 05:48:57;;;;;;;20.20;18.30;;;;;;;4.17;84.99;100633.28;5054921;28;20259;-78
2020/12/19 05:51:26;;;;;;;20.13;18.13;;;;;;;4.16;85.41;100626.41;5047894;28;20210;-78
2020/12/19 05:53:52;;;;;;;21.07;18.93;;;;;;;4.18;84.69;100610.88;5053902;28;20213;-78
2020/12/19 05:56:19;;;;;;;20.03;17.93;;;;;;;4.21;85.23;100610.06;5048573;28;20751;-78
2020/12/19 05:58:46;;;;;;;19.97;18.07;;;;;;;4.18;85.07;100606.63;5055754;28;20663;-77
2020/12/19 06:01:14;;;;;;;20.00;18.10;;;;;;;4.13;85.37;100608.28;5054601;28;20204;-78
2020/12/19 06:03:44;;;;;;;24.43;19.63;;;;;;;4.12;86.19;100619.47;5056403;28;20193;-78
2020/12/19 06:06:11;;;;;;;18.70;16.90;;;;;;;4.19;85.64;100602.31;5064794;28;20232;-77
2020/12/19 06:08:39;;;;;;;19.67;17.70;;;;;;;4.21;85.66;100603.19;5051682;28;20197;-77
2020/12/19 06:11:06;;;;;;;20.87;18.77;;;;;;;4.27;85.26;100602.38;5049641;28;20198;-77
2020/12/19 06:13:33;;;;;;;20.27;17.30;;;;;;;4.22;85.29;100593.69;5054816;28;20221;-77
2020/12/19 06:16:04;;;;;;;19.97;18.13;;;;;;;4.17;85.86;100593.66;5046083;28;20234;-78
2020/12/19 06:18:41;;;;;;;19.23;17.17;;;;;;;4.18;85.70;100596.28;5055357;28;20194;-78
2020/12/19 06:21:08;;;;;;;20.73;18.47;;;;;;;4.23;85.62;100587.69;5054873;28;20224;-78
2020/12/19 06:23:36;;;;;;;20.37;18.37;;;;;;;4.23;85.75;100604.06;5055029;28;20200;-78
2020/12/19 06:26:02;;;;;;;19.17;17.10;;;;;;;4.25;85.47;100609.25;5048398;28;20218;-77
2020/12/19 06:28:48;;;;;;;17.83;16.13;;;;;;;4.21;85.23;100600.59;5055134;28;20202;-78
2020/12/19 06:31:17;;;;;;;19.30;17.30;;;;;;;4.20;85.37;100590.25;5046709;28;20284;-78
2020/12/19 06:33:46;;;;;;;18.47;16.57;;;;;;;4.10;85.56;100592.75;5054595;28;20229;-78
2020/12/19 06:36:24;;;;;;;18.17;16.10;;;;;;;4.10;85.49;100594.44;5064910;28;20221;-78
2020/12/19 06:38:54;;;;;;;17.53;15.93;;;;;;;4.04;85.09;100602.16;5053245;28;20258;-77
2020/12/19 06:41:40;;;;;;;17.63;15.93;;;;;;;4.01;85.07;100608.16;5052968;28;20647;-78
2020/12/19 06:44:07;;;;;;;17.07;15.27;;;;;;;3.96;85.04;100604.63;5052648;28;20256;-78
2020/12/19 06:46:33;;;;;;;17.60;16.10;;;;;;;3.97;85.04;100601.22;5051694;28;20218;-78
2020/12/19 06:48:59;;;;;;;17.30;15.70;;;;;;;3.95;84.42;100598.63;5054812;28;20351;-77
2020/12/19 06:51:24;;;;;;;17.03;15.37;;;;;;;3.95;84.80;100598.63;5048896;28;20201;-77
2020/12/19 06:53:55;;;;;;;16.00;14.50;;;;;;;3.91;84.44;100596.00;5055078;28;20244;-78
2020/12/19 06:56:28;;;;;;;16.13;14.53;;;;;;;3.93;84.79;100594.28;5047793;28;20721;-78
2020/12/19 06:59:00;;;;;;;15.63;14.20;;;;;;;3.84;84.79;100602.78;5054094;28;20201;-77
2020/12/19 07:01:27;;;;;;;17.20;15.40;;;;;;;3.78;86.04;100606.16;5048429;28;20201;-78
2020/12/19 07:03:54;;;;;;;17.83;16.10;;;;;;;3.87;86.02;100609.72;5055265;28;20663;-77
2020/12/19 07:06:20;;;;;;;17.33;15.63;;;;;;;3.85;86.10;100614.88;5064712;28;20229;-77
2020/12/19 07:08:46;;;;;;;15.83;14.40;;;;;;;3.93;86.28;100613.22;5054644;28;20365;-77
2020/12/19 07:11:20;;;;;;;16.10;14.60;;;;;;;3.93;85.84;100609.78;5049270;28;20208;-80
2020/12/19 07:13:54;;;;;;;15.77;14.27;;;;;;;3.94;85.28;100616.66;5053809;28;20228;-78
2020/12/19 07:16:49;;;;;;;17.50;15.67;;;;;;;3.91;85.28;100608.91;5044804;28;20615;-78
2020/12/19 07:19:17;;;;;;;16.73;15.17;;;;;;;3.96;85.65;100609.81;5046724;28;20201;-77
2020/12/19 07:21:43;;;;;;;16.07;14.60;;;;;;;3.85;85.84;100607.13;5054373;28;20667;-80
2020/12/19 07:24:09;;;;;;;17.00;15.37;;;;;;;3.79;85.75;100612.22;5043474;28;20197;-77
2020/12/19 07:26:36;;;;;;;18.27;16.10;;;;;;;3.83;86.74;100619.16;5038361;28;20226;-77
2020/12/19 07:29:02;;;;;;;17.37;15.67;;;;;;;3.87;86.45;100618.31;5051703;28;20685;-77
2020/12/19 07:31:30;;;;;;;17.77;16.10;;;;;;;3.94;86.73;100616.66;5045883;28;20660;-78
2020/12/19 07:33:55;;;;;;;17.00;15.20;;;;;;;3.94;86.67;100620.16;5052171;28;20230;-77
2020/12/19 07:36:23;;;;;;;17.57;15.87;;;;;;;4.02;86.21;100622.78;5044746;28;20233;-78
2020/12/19 07:38:49;;;;;;;17.57;15.27;;;;;;;4.04;86.25;100615.06;5044727;28;20205;-77
2020/12/19 07:41:16;;;;;;;16.33;14.73;;;;;;;4.11;86.45;100619.44;5040538;28;20285;-78
2020/12/19 07:43:43;;;;;;;16.60;15.07;;;;;;;4.12;86.23;100616.88;5044219;28;20259;-77
2020/12/19 07:46:09;;;;;;;16.77;15.27;;;;;;;4.20;85.85;100605.75;5043219;28;20225;-78
2020/12/19 07:48:34;;;;;;;17.90;16.03;;;;;;;4.23;85.82;100596.31;5045643;28;20206;-77
2020/12/19 07:51:06;;;;;;;16.23;14.60;;;;;;;4.27;85.53;100599.78;5043857;28;20209;-78
2020/12/19 07:53:41;;;;;;;15.77;14.37;;;;;;;4.26;85.62;100604.09;5042099;28;20284;-78
2020/12/19 07:56:10;;;;;;;16.83;15.13;;;;;;;4.43;85.46;100604.25;5042825;28;20232;-78
2020/12/19 07:58:37;;;;;;;16.70;15.10;;;;;;;4.60;85.98;100604.41;5044105;28;20202;-77
2020/12/19 08:01:04;;;;;;;17.47;15.70;;;;;;;4.85;88.02;100597.66;5042310;28;20209;-77
2020/12/19 08:03:30;;;;;;;22.87;17.07;;;;;;;4.97;87.53;100610.72;5049526;28;20193;-77
2020/12/19 08:05:56;;;;;;;15.43;13.47;;;;;;;5.00;85.67;100596.06;5050234;28;20331;-77
2020/12/19 08:08:22;;;;;;;18.47;16.17;;;;;;;5.09;86.32;100596.09;5048903;28;20202;-78
2020/12/19 08:10:47;;;;;;;23.17;15.83;;;;;;;5.13;83.92;100600.44;5046630;28;20227;-77
2020/12/19 08:13:15;;;;;;;15.70;14.20;;;;;;;5.14;84.24;100594.41;5047198;28;20249;-80
2020/12/19 08:15:41;;;;;;;15.57;14.17;;;;;;;5.21;83.79;100595.31;5054769;28;20241;-78
2020/12/19 08:18:10;;;;;;;13.77;12.47;;;;;;;5.16;83.08;100592.69;5054808;28;20209;-77
2020/12/19 08:20:39;;;;;;;15.50;13.97;;;;;;;5.30;83.97;100603.13;5053431;28;20201;-78
2020/12/19 08:23:06;;;;;;;14.13;12.73;;;;;;;5.31;83.63;100603.16;5047671;28;20197;-77
2020/12/19 08:25:33;;;;;;;14.80;13.40;;;;;;;5.41;83.74;100592.81;5048199;28;20612;-78
2020/12/19 08:27:59;;;;;;;14.33;12.93;;;;;;;5.49;82.92;100599.78;5044596;28;20671;-78
2020/12/19 08:30:29;;;;;;;13.63;12.43;;;;;;;5.56;82.97;100604.09;5047892;28;20216;-77
2020/12/19 08:32:58;;;;;;;14.47;13.17;;;;;;;5.72;82.91;100591.22;5057535;28;20308;-78
2020/12/19 08:35:26;;;;;;;13.30;12.10;;;;;;;5.73;82.23;100590.38;5062510;28;20201;-78
2020/12/19 08:38:03;;;;;;;14.90;13.50;;;;;;;5.77;81.53;100592.13;5054895;28;20212;-79
2020/12/19 08:40:34;;;;;;;13.77;12.60;;;;;;;5.74;82.36;100598.13;5048701;28;20201;-78
2020/12/19 08:43:00;;;;;;;12.73;11.63;;;;;;;5.70;82.45;100598.13;5057213;28;20542;-78
2020/12/19 08:45:29;;;;;;;14.53;13.33;;;;;;;5.77;82.44;100607.66;5057145;28;20324;-79
2020/12/19 08:47:57;;;;;;;13.20;11.97;;;;;;;5.86;83.25;100596.44;5056720;28;20233;-79
2020/12/19 08:50:27;;;;;;;14.13;12.83;;;;;;;5.87;82.81;100603.38;5056104;28;20201;-79
2020/12/19 08:53:27;;;;;;;12.60;11.60;;;;;;;6.02;84.30;100618.97;5050218;28;20257;-80
2020/12/19 08:55:54;;;;;;;14.23;12.83;;;;;;;6.13;83.55;100613.81;5036970;28;20304;-81
2020/12/19 08:58:24;;;;;;;14.27;13.07;;;;;;;6.20;82.96;100610.38;5057080;28;20193;-82
2020/12/19 09:00:51;;;;;;;12.37;11.17;;;;;;;6.45;82.64;100606.09;5053962;28;20268;-82
2020/12/19 09:03:25;;;;;;;20.73;12.70;;;;;;;6.71;82.50;100616.44;5054578;28;20200;-82
2020/12/19 09:05:58;;;;;;;13.63;12.43;;;;;;;6.61;80.16;100612.13;5061085;28;20226;-79
2020/12/19 09:08:31;;;;;;;13.10;12.00;;;;;;;6.41;78.38;100619.06;5056727;28;20535;-79
2020/12/19 09:10:57;;;;;;;12.70;11.50;;;;;;;6.16;79.39;100612.13;5054868;28;20271;-79
2020/12/19 09:13:23;;;;;;;13.27;11.97;;;;;;;6.02;79.82;100625.88;5055758;28;20217;-78
2020/12/19 09:15:51;;;;;;;12.77;11.77;;;;;;;5.84;80.09;100626.66;5055069;28;20322;-79
2020/12/19 09:18:19;;;;;;;13.33;12.17;;;;;;;5.74;80.41;100633.53;5056628;28;20203;-80
2020/12/19 09:20:51;;;;;;;13.03;11.87;;;;;;;5.72;80.99;100628.34;5053385;28;20580;-77
2020/12/19 09:23:18;;;;;;;12.97;11.73;;;;;;;5.67;81.25;100632.66;5056217;28;20206;-78
2020/12/19 09:25:45;;;;;;;11.60;10.70;;;;;;;5.66;81.77;100627.47;5055038;28;20232;-78
2020/12/19 09:28:11;;;;;;;12.53;11.43;;;;;;;5.55;82.47;100632.59;5056184;28;20194;-79
2020/12/19 09:30:37;;;;;;;12.40;11.40;;;;;;;5.48;81.79;100636.00;5055471;28;20214;-80
2020/12/19 09:33:03;;;;;;;11.80;10.80;;;;;;;5.52;82.09;100636.03;5056057;28;20222;-79
2020/12/19 09:35:29;;;;;;;11.93;10.93;;;;;;;5.48;82.30;100642.03;5063160;28;20605;-77
2020/12/19 09:37:56;;;;;;;12.67;11.43;;;;;;;5.50;82.17;100642.06;5049829;28;20209;-78
2020/12/19 09:40:22;;;;;;;13.70;12.40;;;;;;;5.58;82.12;100640.38;5035908;28;20582;-78
2020/12/19 09:42:48;;;;;;;12.87;11.77;;;;;;;5.57;82.14;100631.75;5053207;28;20206;-77
2020/12/19 09:45:14;;;;;;;12.87;11.67;;;;;;;5.64;81.93;100626.59;5055133;28;20213;-77
2020/12/19 09:47:41;;;;;;;11.93;10.93;;;;;;;5.66;82.06;100623.13;5054373;28;20742;-78
2020/12/19 09:50:09;;;;;;;11.43;10.43;;;;;;;5.66;82.29;100630.91;5055223;28;20780;-78
2020/12/19 09:52:35;;;;;;;10.90;10.00;;;;;;;5.71;82.37;100625.75;5054578;28;20316;-78
2020/12/19 09:55:01;;;;;;;11.50;10.50;;;;;;;5.78;81.96;100620.59;5055166;28;20239;-78
2020/12/19 09:57:28;;;;;;;10.60;9.70;;;;;;;5.88;82.18;100616.31;5053470;28;20225;-79
2020/12/19 09:59:54;;;;;;;11.53;10.43;;;;;;;5.99;80.89;100618.13;5055368;28;20259;-79
2020/12/19 10:02:19;;;;;;;11.03;10.10;;;;;;;6.02;81.81;100608.59;5055070;28;20271;-78
2020/12/19 10:04:45;;;;;;;11.10;10.20;;;;;;;6.04;80.92;100612.06;5057355;28;20224;-76
2020/12/19 10:07:11;;;;;;;10.53;9.63;;;;;;;6.06;81.42;100606.88;5049906;28;20245;-77
2020/12/19 10:09:37;;;;;;;10.97;10.07;;;;;;;6.14;81.05;100593.09;5048278;28;20716;-77
2020/12/19 10:12:03;;;;;;;10.03;9.03;;;;;;;6.21;80.58;100588.78;5051342;28;20551;-76
2020/12/19 10:14:29;;;;;;;10.50;9.60;;;;;;;6.27;79.48;100585.34;5042388;28;20218;-77
2020/12/19 10:16:55;;;;;;;12.43;11.23;;;;;;;6.26;79.54;100594.81;5046703;28;20234;-77
2020/12/19 10:19:21;;;;;;;11.30;10.40;;;;;;;6.33;80.07;100593.13;5048328;28;20237;-77
2020/12/19 10:21:47;;;;;;;11.37;10.47;;;;;;;6.38;79.95;100587.94;5042840;28;20254;-76
2020/12/19 10:24:13;;;;;;;12.37;11.37;;;;;;;6.45;80.56;100581.88;5045676;28;20221;-77
2020/12/19 10:26:39;;;;;;;10.93;10.03;;;;;;;6.42;79.64;100576.69;5042091;28;20226;-78
2020/12/19 10:29:04;;;;;;;11.00;10.03;;;;;;;6.42;79.17;100571.50;5046209;28;20241;-78
2020/12/19 10:31:31;;;;;;;10.60;9.63;;;;;;;6.57;79.86;100574.09;5039569;28;20204;-78
2020/12/19 10:33:57;;;;;;;11.30;10.30;;;;;;;6.60;79.71;100558.56;5052761;28;20222;-78
2020/12/19 10:36:23;;;;;;;10.90;9.90;;;;;;;6.54;79.48;100564.59;5064510;28;20227;-78
2020/12/19 10:38:49;;;;;;;9.53;8.83;;;;;;;6.50;79.56;100572.38;5059454;28;20209;-78
2020/12/19 10:41:15;;;;;;;10.10;9.30;;;;;;;6.50;79.83;100567.19;5055284;28;20206;-79
2020/12/19 10:43:41;;;;;;;11.37;10.37;;;;;;;6.56;79.96;100572.34;5055090;28;20232;-81
2020/12/19 10:46:08;;;;;;;10.03;9.13;;;;;;;6.59;79.81;100568.91;5053015;28;20240;-79
2020/12/19 10:48:35;;;;;;;10.07;9.27;;;;;;;6.68;79.54;100558.53;5054683;28;20255;-78
2020/12/19 10:51:01;;;;;;;9.80;9.00;;;;;;;6.77;79.72;100558.53;5051898;28;20656;-78
2020/12/19 10:53:27;;;;;;;10.43;9.53;;;;;;;6.83;80.50;100555.91;5050411;28;20218;-79
2020/12/19 10:55:53;;;;;;;8.83;8.13;;;;;;;6.95;79.48;100553.28;5049186;28;20222;-78
2020/12/19 10:58:19;;;;;;;8.03;7.33;;;;;;;7.11;79.60;100551.50;5048571;28;20201;-77
2020/12/19 11:00:45;;;;;;;8.60;7.83;;;;;;;7.17;79.09;100532.47;5045988;28;20270;-78
2020/12/19 11:03:11;;;;;;;8.43;7.73;;;;;;;7.23;79.03;100541.97;5054138;28;20278;-77
2020/12/19 11:05:39;;;;;;;8.53;7.83;;;;;;;7.27;78.08;100531.56;5060407;28;20278;-78
2020/12/19 11:08:05;;;;;;;7.40;6.90;;;;;;;7.30;78.95;100523.75;5054402;28;20203;-79
2020/12/19 11:10:31;;;;;;;8.57;7.87;;;;;;;7.31;77.92;100525.50;5054831;28;20297;-77
2020/12/19 11:12:57;;;;;;;8.97;8.17;;;;;;;7.37;77.32;100527.19;5053924;28;20225;-78
2020/12/19 11:15:23;;;;;;;8.53;7.83;;;;;;;7.39;77.04;100528.03;5054124;28;20218;-79
2020/12/19 11:17:49;;;;;;;8.40;7.70;;;;;;;7.45;77.76;100508.97;5054373;28;20210;-78
2020/12/19 11:20:15;;;;;;;8.07;7.47;;;;;;;7.51;77.90;100515.03;5054161;28;20552;-80
2020/12/19 11:22:42;;;;;;;8.53;7.70;;;;;;;7.59;77.88;100516.69;5052609;28;20215;-80